createdAt,value
2022-10-10T00:02:19.981Z,19.50
2022-10-10T00:04:50.113Z,19.50
2022-10-10T00:07:20.246Z,19.50
2022-10-10T00:09:50.714Z,19.60
2022-10-10T00:12:20.925Z,19.60
2022-10-10T00:14:51.116Z,19.60
2022-10-10T00:17:21.418Z,19.60
2022-10-10T00:19:51.613Z,19.60
2022-10-10T00:22:21.817Z,19.60
2022-10-10T00:24:52.074Z,19.60
2022-10-10T00:27:22.245Z,19.70
2022-10-10T00:29:52.498Z,19.60
2022-10-10T00:32:22.698Z,19.70
2022-10-10T00:34:53.078Z,19.70
2022-10-10T00:37:23.797Z,19.70
2022-10-10T00:39:54.150Z,19.70
2022-10-10T00:42:24.690Z,19.70
2022-10-10T00:45:25.344Z,19.80
2022-10-10T00:48:10.289Z,19.80
2022-10-10T00:50:52.737Z,19.80
2022-10-10T00:53:27.160Z,19.80
2022-10-10T00:55:58.257Z,19.80
2022-10-10T00:58:28.777Z,19.80
2022-10-10T01:00:59.043Z,19.80
2022-10-10T01:03:29.674Z,19.80
2022-10-10T01:06:00.101Z,19.80
2022-10-10T01:08:36.142Z,19.80
2022-10-10T01:11:39.323Z,19.80
2022-10-10T01:14:28.759Z,19.80
2022-10-10T01:17:21.338Z,19.90
2022-10-10T01:20:05.556Z,19.90
2022-10-10T01:22:38.605Z,19.80
2022-10-10T01:25:31.791Z,19.80
2022-10-10T01:28:08.913Z,19.90
2022-10-10T01:30:39.192Z,19.80
2022-10-10T01:33:13.371Z,19.90
2022-10-10T01:35:55.656Z,19.80
2022-10-10T01:38:45.752Z,19.90
2022-10-10T01:41:34.085Z,19.90
2022-10-10T01:44:04.285Z,19.90
2022-10-10T01:46:35.360Z,19.90
2022-10-10T01:49:06.004Z,19.90
2022-10-10T01:51:57.453Z,19.90
2022-10-10T01:54:36.754Z,20.00
2022-10-10T01:57:35.659Z,20.00
2022-10-10T02:00:09.566Z,20.00
2022-10-10T02:02:49.077Z,20.00
2022-10-10T02:05:34.191Z,20.00
2022-10-10T02:08:16.317Z,20.00
2022-10-10T02:10:57.069Z,20.10
2022-10-10T02:13:34.238Z,20.10
2022-10-10T02:16:08.769Z,20.10
2022-10-10T02:18:39.542Z,20.10
2022-10-10T02:21:11.905Z,20.10
2022-10-10T02:23:49.208Z,20.20
2022-10-10T02:26:21.264Z,20.20
2022-10-10T02:28:53.456Z,20.20
2022-10-10T02:31:43.256Z,20.20
2022-10-10T02:34:18.986Z,20.20
2022-10-10T02:36:55.628Z,20.20
2022-10-10T02:39:31.513Z,20.30
2022-10-10T02:42:01.780Z,20.20
2022-10-10T02:44:32.403Z,20.30
2022-10-10T02:47:11.519Z,20.30
2022-10-10T02:49:42.120Z,20.30
2022-10-10T02:52:13.204Z,20.30
2022-10-10T02:54:43.633Z,20.30
2022-10-10T02:57:14.250Z,20.30
2022-10-10T02:59:44.566Z,20.30
2022-10-10T03:02:14.715Z,20.40
2022-10-10T03:04:46.417Z,20.40
2022-10-10T03:07:16.679Z,20.40
2022-10-10T03:09:46.809Z,20.40
2022-10-10T03:12:17.343Z,20.40
2022-10-10T03:14:47.685Z,20.40
2022-10-10T03:17:17.943Z,20.40
2022-10-10T03:19:48.116Z,20.40
2022-10-10T03:22:18.193Z,20.40
2022-10-10T03:24:48.462Z,20.40
2022-10-10T03:27:18.640Z,20.50
2022-10-10T03:29:48.829Z,20.50
2022-10-10T03:32:19.056Z,20.50
2022-10-10T03:34:49.346Z,20.50
2022-10-10T03:37:19.485Z,20.50
2022-10-10T03:39:49.664Z,20.60
2022-10-10T03:42:20.846Z,20.60
2022-10-10T03:44:50.935Z,20.60
2022-10-10T03:47:21.131Z,20.60
2022-10-10T03:49:51.311Z,20.60
2022-10-10T03:52:21.430Z,20.60
2022-10-10T03:54:51.579Z,20.60
2022-10-10T03:57:21.766Z,20.60
2022-10-10T03:59:51.977Z,20.70
2022-10-10T04:02:22.073Z,20.70
2022-10-10T04:04:52.257Z,20.70
2022-10-10T04:07:22.380Z,20.70
2022-10-10T04:09:52.791Z,20.70
2022-10-10T04:12:23.081Z,20.70
2022-10-10T04:14:53.252Z,20.70
2022-10-10T04:17:23.527Z,20.80
2022-10-10T04:19:54.852Z,20.80
2022-10-10T04:22:25.088Z,20.80
2022-10-10T04:24:55.412Z,20.80
2022-10-10T04:27:25.673Z,20.80
2022-10-10T04:29:55.837Z,20.80
2022-10-10T04:32:27.103Z,20.80
2022-10-10T04:34:57.296Z,20.80
2022-10-10T04:37:27.648Z,20.80
2022-10-10T04:39:57.936Z,20.80
2022-10-10T04:42:28.449Z,20.80
2022-10-10T04:44:58.844Z,20.80
2022-10-10T04:47:29.220Z,20.80
2022-10-10T04:49:59.319Z,20.90
2022-10-10T04:52:29.808Z,20.90
2022-10-10T04:55:00.022Z,20.90
2022-10-10T04:57:30.130Z,20.90
2022-10-10T05:00:00.242Z,20.90
2022-10-10T05:02:30.345Z,20.90
2022-10-10T05:05:00.451Z,20.90
2022-10-10T05:07:30.594Z,20.90
2022-10-10T05:10:00.747Z,20.90
2022-10-10T05:12:30.898Z,20.90
2022-10-10T05:15:01.050Z,20.90
2022-10-10T05:17:31.177Z,20.90
2022-10-10T05:20:01.324Z,21.00
2022-10-10T05:22:31.444Z,21.00
2022-10-10T05:25:01.675Z,21.00
2022-10-10T05:27:32.242Z,21.00
2022-10-10T05:30:02.491Z,21.00
2022-10-10T05:32:32.678Z,21.00
2022-10-10T05:35:02.861Z,21.00
2022-10-10T05:37:33.713Z,21.00
2022-10-10T05:40:04.207Z,21.00
2022-10-10T05:42:34.338Z,21.00
2022-10-10T05:45:04.553Z,21.00
2022-10-10T05:47:34.718Z,21.00
2022-10-10T05:50:04.897Z,21.00
2022-10-10T05:52:36.848Z,21.00
2022-10-10T05:55:07.443Z,21.00
2022-10-10T05:57:37.667Z,21.10
2022-10-10T06:00:08.398Z,21.10
2022-10-10T06:02:38.617Z,21.10
2022-10-10T06:05:10.431Z,21.10
2022-10-10T06:08:03.660Z,21.10
2022-10-10T06:10:31.174Z,21.10
2022-10-10T06:13:01.345Z,21.10
2022-10-10T06:15:31.658Z,21.10
2022-10-10T06:18:01.768Z,21.10
2022-10-10T06:20:32.117Z,21.20
2022-10-10T06:23:02.230Z,21.20
2022-10-10T06:25:41.248Z,21.20
2022-10-10T06:28:14.377Z,21.20
2022-10-10T06:30:46.413Z,21.20
2022-10-10T06:33:17.695Z,21.20
2022-10-10T06:35:50.293Z,21.20
2022-10-10T06:38:20.651Z,21.20
2022-10-10T06:40:50.963Z,21.20
2022-10-10T06:43:21.158Z,21.20
2022-10-10T06:45:53.473Z,21.20
2022-10-10T06:48:23.626Z,21.20
2022-10-10T06:51:05.988Z,21.20
2022-10-10T06:53:36.556Z,21.20
2022-10-10T06:56:06.972Z,21.20
2022-10-10T06:58:37.675Z,21.20
2022-10-10T07:01:08.071Z,21.20
2022-10-10T07:03:38.209Z,21.20
2022-10-10T07:06:12.988Z,21.20
2022-10-10T07:08:44.084Z,21.10
2022-10-10T07:11:14.410Z,21.10
2022-10-10T07:13:44.633Z,21.10
2022-10-10T07:16:15.980Z,21.10
2022-10-10T07:18:46.233Z,21.10
2022-10-10T07:21:16.573Z,21.10
2022-10-10T07:23:46.722Z,21.20
2022-10-10T07:26:19.904Z,21.10
2022-10-10T07:28:50.813Z,21.10
2022-10-10T07:31:21.066Z,21.10
2022-10-10T07:34:08.377Z,21.10
2022-10-10T07:36:39.421Z,21.10
2022-10-10T07:39:12.675Z,21.10
2022-10-10T07:41:45.146Z,21.10
2022-10-10T07:44:15.330Z,21.10
2022-10-10T07:46:45.640Z,21.10
2022-10-10T07:49:16.002Z,21.10
2022-10-10T07:51:46.184Z,21.10
2022-10-10T07:54:16.289Z,21.10
2022-10-10T07:56:46.573Z,21.10
2022-10-10T07:59:17.041Z,21.10
2022-10-10T08:01:47.319Z,21.10
2022-10-10T08:04:17.952Z,21.10
2022-10-10T08:06:48.210Z,21.10
2022-10-10T08:09:18.524Z,21.10
2022-10-10T08:11:48.804Z,21.10
2022-10-10T08:14:19.063Z,21.10
2022-10-10T08:16:49.169Z,21.10
2022-10-10T08:19:19.451Z,21.10
2022-10-10T08:21:49.599Z,21.10
2022-10-10T08:24:19.803Z,21.10
2022-10-10T08:26:50.071Z,21.10
2022-10-10T08:29:20.723Z,21.10
2022-10-10T08:31:50.832Z,21.10
2022-10-10T08:34:21.047Z,21.10
2022-10-10T08:36:51.641Z,21.10
2022-10-10T08:39:21.820Z,21.10
2022-10-10T08:42:01.266Z,21.10
2022-10-10T08:44:51.741Z,21.20
2022-10-10T08:47:27.351Z,21.10
2022-10-10T08:50:14.989Z,21.10
2022-10-10T08:53:01.123Z,21.20
2022-10-10T08:55:37.086Z,21.10
2022-10-10T08:58:36.055Z,21.10
2022-10-10T09:01:28.845Z,21.10
2022-10-10T09:04:05.514Z,21.10
2022-10-10T09:06:57.069Z,21.10
2022-10-10T09:10:11.304Z,21.10
2022-10-10T09:12:50.344Z,21.10
2022-10-10T09:15:44.930Z,21.10
2022-10-10T09:18:18.214Z,21.10
2022-10-10T09:20:59.676Z,21.10
2022-10-10T09:23:30.124Z,21.00
2022-10-10T09:26:11.284Z,21.00
2022-10-10T09:28:54.236Z,21.10
2022-10-10T09:31:32.015Z,21.10
2022-10-10T09:34:06.170Z,21.10
2022-10-10T09:36:39.838Z,21.00
2022-10-10T09:39:25.506Z,21.00
2022-10-10T09:42:05.460Z,21.00
2022-10-10T09:44:36.302Z,21.00
2022-10-10T09:47:06.704Z,21.00
2022-10-10T09:49:37.919Z,21.00
2022-10-10T09:52:33.018Z,21.00
2022-10-10T09:55:07.810Z,21.00
2022-10-10T09:57:41.381Z,21.00
2022-10-10T10:00:25.499Z,21.00
2022-10-10T10:03:12.829Z,21.00
2022-10-10T10:05:46.635Z,21.00
2022-10-10T10:08:37.483Z,20.90
2022-10-10T10:11:08.547Z,20.90
2022-10-10T10:13:39.926Z,20.90
2022-10-10T10:16:16.248Z,20.90
2022-10-10T10:18:50.854Z,20.90
2022-10-10T10:21:25.426Z,20.90
2022-10-10T10:24:05.450Z,20.90
2022-10-10T10:26:49.669Z,20.90
2022-10-10T10:29:33.193Z,20.90
2022-10-10T10:32:44.388Z,20.90
2022-10-10T10:35:30.731Z,20.90
2022-10-10T10:38:07.389Z,20.80
2022-10-10T10:41:02.373Z,20.80
2022-10-10T10:43:41.214Z,20.80
2022-10-10T10:46:31.941Z,20.80
2022-10-10T10:49:19.714Z,20.80
2022-10-10T10:52:29.950Z,20.80
2022-10-10T10:55:14.053Z,20.80
2022-10-10T11:01:55.259Z,20.80
2022-10-10T11:05:29.003Z,20.70
2022-10-10T11:08:30.574Z,20.70
2022-10-10T11:11:09.672Z,20.70
2022-10-10T11:14:03.081Z,20.70
2022-10-10T11:16:48.553Z,20.80
2022-10-10T11:19:37.212Z,20.70
2022-10-10T11:22:21.675Z,20.70
2022-10-10T11:25:10.592Z,20.70
2022-10-10T11:28:22.554Z,20.70
2022-10-10T11:30:58.453Z,20.70
2022-10-10T11:33:57.519Z,20.70
2022-10-10T11:36:32.084Z,20.70
2022-10-10T11:39:05.281Z,20.70
2022-10-10T11:41:46.763Z,20.70
2022-10-10T11:44:40.936Z,20.70
2022-10-10T11:47:26.440Z,20.70
2022-10-10T11:50:08.565Z,20.60
2022-10-10T11:52:44.626Z,20.60
2022-10-10T11:55:29.867Z,20.60
2022-10-10T11:58:32.348Z,20.60
2022-10-10T12:01:17.351Z,20.60
2022-10-10T12:03:47.636Z,20.60
2022-10-10T12:06:22.992Z,20.50
2022-10-10T12:09:18.423Z,20.50
2022-10-10T12:11:51.293Z,20.60
2022-10-10T12:14:24.776Z,20.50
2022-10-10T12:16:55.580Z,20.50
2022-10-10T12:19:28.809Z,20.50
2022-10-10T12:22:10.142Z,20.50
2022-10-10T12:25:22.971Z,20.50
2022-10-10T12:28:16.314Z,20.50
2022-10-10T12:30:58.956Z,20.40
2022-10-10T12:33:32.080Z,20.40
2022-10-10T12:36:23.143Z,20.40
2022-10-10T12:39:07.759Z,20.40
2022-10-10T12:41:58.039Z,20.40
2022-10-10T12:44:37.474Z,20.40
2022-10-10T12:47:19.912Z,20.40
2022-10-10T12:50:26.556Z,20.40
2022-10-10T12:53:04.986Z,20.30
2022-10-10T12:55:44.914Z,20.30
2022-10-10T12:58:42.622Z,20.30
2022-10-10T13:01:27.922Z,20.30
2022-10-10T13:03:59.102Z,20.30
2022-10-10T13:06:43.105Z,20.20
2022-10-10T13:09:33.920Z,20.30
2022-10-10T13:12:08.217Z,20.30
2022-10-10T13:14:47.221Z,20.20
2022-10-10T13:17:29.476Z,20.30
2022-10-10T13:20:03.856Z,20.20
2022-10-10T13:22:38.163Z,20.20
2022-10-10T13:25:13.871Z,20.20
2022-10-10T13:27:46.055Z,20.20
2022-10-10T13:30:24.762Z,20.20
2022-10-10T13:32:57.837Z,20.20
2022-10-10T13:35:30.520Z,20.20
2022-10-10T13:38:03.990Z,20.10
2022-10-10T13:40:34.420Z,20.10
2022-10-10T13:43:04.730Z,20.10
2022-10-10T13:45:58.401Z,20.10
2022-10-10T13:48:42.023Z,20.10
2022-10-10T13:51:14.680Z,20.10
2022-10-10T13:53:46.787Z,20.10
2022-10-10T13:56:31.988Z,20.00
2022-10-10T13:59:08.017Z,20.00
2022-10-10T14:01:41.095Z,20.00
2022-10-10T14:04:25.071Z,20.00
2022-10-10T14:07:09.865Z,20.00
2022-10-10T14:10:08.549Z,20.00
2022-10-10T14:12:59.725Z,20.00
2022-10-10T14:15:44.739Z,19.90
2022-10-10T14:18:27.996Z,19.90
2022-10-10T14:20:58.193Z,19.90
2022-10-10T14:23:28.636Z,19.90
2022-10-10T14:26:00.601Z,19.90
2022-10-10T14:28:34.129Z,19.90
2022-10-10T14:31:05.902Z,19.90
2022-10-10T14:33:36.645Z,19.90
2022-10-10T14:36:08.720Z,19.90
2022-10-10T14:38:38.837Z,19.90
2022-10-10T14:41:09.198Z,19.90
2022-10-10T14:43:43.416Z,19.90
2022-10-10T14:46:21.356Z,19.90
2022-10-10T14:48:51.685Z,19.90
2022-10-10T14:51:34.249Z,19.80
2022-10-10T14:54:10.790Z,19.80
2022-10-10T14:57:07.062Z,19.80
2022-10-10T14:59:47.109Z,19.80
2022-10-10T15:02:21.689Z,19.80
2022-10-10T15:04:52.667Z,19.80
2022-10-10T15:07:23.444Z,19.80
2022-10-10T15:12:46.493Z,19.70
2022-10-10T15:15:17.058Z,19.70
2022-10-10T15:17:48.144Z,19.70
2022-10-10T15:20:18.504Z,19.70
2022-10-10T15:22:48.720Z,19.70
2022-10-10T15:25:18.884Z,19.70
2022-10-10T15:27:49.130Z,19.70
2022-10-10T15:30:19.587Z,19.70
2022-10-10T15:32:49.781Z,19.70
2022-10-10T15:35:23.256Z,19.70
2022-10-10T15:37:53.470Z,19.60
2022-10-10T15:40:25.888Z,19.60
2022-10-10T15:42:56.305Z,19.60
2022-10-10T15:48:17.593Z,19.60
2022-10-10T15:50:47.947Z,19.60
2022-10-10T15:53:18.117Z,19.60
2022-10-10T15:55:49.842Z,19.60
2022-10-10T15:58:20.042Z,19.60
2022-10-10T16:00:50.270Z,19.50
2022-10-10T16:03:20.505Z,19.60
2022-10-10T16:05:50.749Z,19.50
2022-10-10T16:08:20.981Z,19.50
2022-10-10T16:10:51.154Z,19.50
2022-10-10T16:13:21.372Z,19.50
2022-10-10T16:16:04.191Z,19.50
2022-10-10T16:18:39.978Z,19.50
2022-10-10T16:21:20.622Z,19.40
2022-10-10T16:23:57.065Z,19.40
2022-10-10T16:26:33.631Z,19.40
2022-10-10T16:29:04.654Z,19.40
2022-10-10T16:31:38.324Z,19.40
2022-10-10T16:34:09.739Z,19.40
2022-10-10T16:36:39.981Z,19.40
2022-10-10T16:39:10.115Z,19.40
2022-10-10T16:41:48.192Z,19.30
2022-10-10T16:44:19.858Z,19.30
2022-10-10T16:46:50.205Z,19.30
2022-10-10T16:49:22.449Z,19.30
2022-10-10T16:51:52.986Z,19.30
2022-10-10T16:54:23.132Z,19.30
2022-10-10T16:56:54.277Z,19.30
2022-10-10T16:59:24.413Z,19.30
2022-10-10T17:01:54.835Z,19.30
2022-10-10T17:04:25.053Z,19.30
2022-10-10T17:06:55.391Z,19.30
2022-10-10T17:09:25.690Z,19.20
2022-10-10T17:11:55.819Z,19.20
2022-10-10T17:14:26.097Z,19.20
2022-10-10T17:17:12.888Z,19.20
2022-10-10T17:19:43.782Z,19.20
2022-10-10T17:22:13.897Z,19.20
2022-10-10T17:24:44.074Z,19.20
2022-10-10T17:27:14.313Z,19.20
2022-10-10T17:29:44.515Z,19.10
2022-10-10T17:32:14.685Z,19.10
2022-10-10T17:34:44.773Z,19.10
2022-10-10T17:37:15.053Z,19.10
2022-10-10T17:39:45.195Z,19.10
2022-10-10T17:42:15.350Z,19.10
2022-10-10T17:44:50.447Z,19.10
2022-10-10T17:47:24.163Z,19.10
2022-10-10T17:49:54.605Z,19.10
2022-10-10T17:52:26.521Z,19.10
2022-10-10T17:54:56.619Z,19.10
2022-10-10T17:57:26.831Z,19.10
2022-10-10T17:59:57.071Z,19.10
2022-10-10T18:02:27.199Z,19.00
2022-10-10T18:04:57.360Z,19.00
2022-10-10T18:07:27.930Z,19.00
2022-10-10T18:09:58.101Z,19.00
2022-10-10T18:12:29.123Z,19.00
2022-10-10T18:14:59.420Z,19.00
2022-10-10T18:17:29.693Z,19.00
2022-10-10T18:19:59.859Z,19.00
2022-10-10T18:22:30.192Z,19.00
2022-10-10T18:25:00.345Z,19.00
2022-10-10T18:27:31.849Z,18.90
2022-10-10T18:30:02.039Z,18.90
2022-10-10T18:32:32.169Z,18.90
2022-10-10T18:35:02.273Z,18.90
2022-10-10T18:37:32.412Z,18.90
2022-10-10T18:40:02.577Z,18.90
2022-10-10T18:42:32.685Z,18.90
2022-10-10T18:45:02.877Z,18.90
2022-10-10T18:47:32.999Z,18.90
2022-10-10T18:50:03.107Z,18.90
2022-10-10T18:52:33.248Z,18.80
2022-10-10T18:55:03.461Z,18.90
2022-10-10T18:57:33.594Z,18.80
2022-10-10T19:00:03.714Z,18.80
2022-10-10T19:02:33.915Z,18.80
2022-10-10T19:05:04.045Z,18.80
2022-10-10T19:07:34.192Z,18.80
2022-10-10T19:10:05.600Z,18.80
2022-10-10T19:12:36.022Z,18.80
2022-10-10T19:15:06.551Z,18.80
2022-10-10T19:17:37.465Z,18.80
2022-10-10T19:20:08.369Z,18.80
2022-10-10T19:22:38.616Z,18.80
2022-10-10T19:25:09.367Z,18.80
2022-10-10T19:27:39.732Z,18.70
2022-10-10T19:30:10.687Z,18.70
2022-10-10T19:32:41.156Z,18.70
2022-10-10T19:35:11.547Z,18.70
2022-10-10T19:37:41.790Z,18.70
2022-10-10T19:40:12.439Z,18.70
2022-10-10T19:42:42.599Z,18.70
2022-10-10T19:45:13.127Z,18.70
2022-10-10T19:47:43.299Z,18.70
2022-10-10T19:50:13.510Z,18.70
2022-10-10T19:52:43.625Z,18.60
2022-10-10T19:55:13.779Z,18.70
2022-10-10T19:57:43.939Z,18.60
2022-10-10T20:00:14.862Z,18.60
2022-10-10T20:02:46.332Z,18.60
2022-10-10T20:05:16.700Z,18.60
2022-10-10T20:07:46.807Z,18.60
2022-10-10T20:10:16.945Z,18.60
2022-10-10T20:12:47.459Z,18.70
2022-10-10T20:15:17.636Z,18.70
2022-10-10T20:17:47.796Z,18.80
2022-10-10T20:20:18.069Z,18.80
2022-10-10T20:22:48.203Z,18.90
2022-10-10T20:25:18.388Z,18.90
2022-10-10T20:27:48.556Z,18.90
2022-10-10T20:30:18.769Z,18.90
2022-10-10T20:32:48.936Z,18.90
2022-10-10T20:35:20.293Z,19.00
2022-10-10T20:37:50.428Z,19.00
2022-10-10T20:40:20.580Z,19.10
2022-10-10T20:42:50.755Z,19.10
2022-10-10T20:45:20.832Z,19.20
2022-10-10T20:47:51.716Z,19.20
2022-10-10T20:50:21.833Z,19.20
2022-10-10T20:52:51.953Z,19.30
2022-10-10T20:55:22.143Z,19.40
2022-10-10T20:57:52.346Z,19.40
2022-10-10T21:00:22.638Z,19.60
2022-10-10T21:02:52.816Z,19.60
2022-10-10T21:05:22.930Z,19.70
2022-10-10T21:07:53.295Z,19.70
2022-10-10T21:10:23.426Z,19.70
2022-10-10T21:12:53.538Z,19.70
2022-10-10T21:15:23.680Z,19.80
2022-10-10T21:17:53.815Z,19.80
2022-10-10T21:20:23.949Z,19.80
2022-10-10T21:22:54.119Z,19.90
2022-10-10T21:25:24.232Z,19.90
2022-10-10T21:27:54.454Z,19.90
2022-10-10T21:30:29.588Z,19.90
2022-10-10T21:32:59.992Z,19.90
2022-10-10T21:35:30.186Z,20.00
2022-10-10T21:38:00.299Z,20.00
2022-10-10T21:40:30.824Z,20.10
2022-10-10T21:43:00.940Z,20.10
2022-10-10T21:45:31.103Z,20.10
2022-10-10T21:48:01.267Z,20.10
2022-10-10T21:50:31.933Z,20.10
2022-10-10T21:53:02.575Z,20.20
2022-10-10T21:55:32.745Z,20.20
2022-10-10T21:58:03.142Z,20.30
2022-10-10T22:00:33.356Z,20.30
2022-10-10T22:03:03.535Z,20.30
2022-10-10T22:05:35.611Z,20.30
2022-10-10T22:08:05.873Z,20.30
2022-10-10T22:10:36.346Z,20.40
2022-10-10T22:13:06.642Z,20.30
2022-10-10T22:15:37.048Z,20.30
2022-10-10T22:18:07.368Z,20.40
2022-10-10T22:20:37.475Z,20.40
2022-10-10T22:23:07.616Z,20.30
2022-10-10T22:25:37.845Z,20.40
2022-10-10T22:28:07.996Z,20.40
2022-10-10T22:30:38.277Z,20.40
2022-10-10T22:33:08.421Z,20.40
2022-10-10T22:35:39.481Z,20.40
2022-10-10T22:38:09.956Z,20.40
2022-10-10T22:40:40.601Z,20.40
2022-10-10T22:43:10.883Z,20.40
2022-10-10T22:45:42.403Z,20.40
2022-10-10T22:48:13.020Z,20.40
2022-10-10T22:50:43.282Z,20.40
2022-10-10T22:53:13.648Z,20.40
2022-10-10T22:55:44.656Z,20.40
2022-10-10T22:58:14.970Z,20.40
2022-10-10T23:00:45.632Z,20.50
2022-10-10T23:03:15.808Z,20.40
2022-10-10T23:05:47.293Z,20.40
2022-10-10T23:08:17.738Z,20.50
2022-10-10T23:10:48.885Z,20.40
2022-10-10T23:13:19.077Z,20.50
2022-10-10T23:15:49.317Z,20.50
2022-10-10T23:18:19.663Z,20.50
2022-10-10T23:20:50.994Z,20.60
2022-10-10T23:23:21.608Z,20.60
2022-10-10T23:25:51.866Z,20.70
2022-10-10T23:28:22.449Z,20.70
2022-10-10T23:30:52.747Z,20.70
2022-10-10T23:33:22.917Z,20.70
2022-10-10T23:36:04.729Z,20.70
2022-10-10T23:38:35.742Z,20.80
2022-10-10T23:41:06.364Z,20.70
2022-10-10T23:43:36.838Z,20.80
2022-10-10T23:46:07.769Z,20.80
2022-10-10T23:48:38.552Z,20.90
2022-10-10T23:51:09.436Z,20.90
2022-10-10T23:53:39.917Z,20.90
2022-10-10T23:56:11.162Z,20.90
2022-10-10T23:58:41.428Z,20.90
